Terminal Aerodrome Forecast
Issued by NWS

Home | Current Version | Previous Version | Text Only | Print | Product List | Glossary On
Versions: 1 2 3 4 5 6 7 8 9 10 11 12
000
FTUS41 KBOX 242325
TAFBED
TAF
KBED 242325Z 2500/2524 34005KT P6SM SCT200
     FM250200 00000KT P6SM FEW200
     FM251600 20006KT P6SM BKN140
     FM251800 20009KT P6SM VCSH BKN070=

USA.gov is the U.S. government's official web portal to all federal, state and local government web resources and services.